createdAt,value
2022-12-23T00:00:27.684Z,12.32
2022-12-23T00:02:54.584Z,15.13
2022-12-23T00:05:21.411Z,8.85
2022-12-23T00:07:48.161Z,22.52
2022-12-23T00:10:14.843Z,14.10
2022-12-23T00:12:59.999Z,12.43
2022-12-23T00:15:26.752Z,12.23
2022-12-23T00:17:53.466Z,14.65
2022-12-23T00:20:20.401Z,17.23
2022-12-23T00:23:05.135Z,20.10
2022-12-23T00:25:43.966Z,12.30
2022-12-23T00:28:23.496Z,16.05
2022-12-23T00:30:51.790Z,10.52
2022-12-23T00:33:21.201Z,10.82
2022-12-23T00:35:48.398Z,13.73
2022-12-23T00:38:18.386Z,10.85
2022-12-23T00:41:03.871Z,11.73
2022-12-23T00:43:30.566Z,9.70
2022-12-23T00:45:57.277Z,12.95
2022-12-23T00:48:42.841Z,21.92
2022-12-23T00:51:14.805Z,20.08
2022-12-23T00:53:41.538Z,18.75
2022-12-23T00:56:08.239Z,12.20
2022-12-23T00:58:34.945Z,12.60
2022-12-23T01:01:20.240Z,15.52
2022-12-23T01:04:05.679Z,17.20
2022-12-23T01:06:32.490Z,21.20
2022-12-23T01:08:59.164Z,13.60
2022-12-23T01:11:26.200Z,19.02
2022-12-23T01:13:53.132Z,16.35
2022-12-23T01:16:21.198Z,18.70
2022-12-23T01:18:47.950Z,13.52
2022-12-23T01:21:14.705Z,19.83
2022-12-23T01:23:41.507Z,18.77
2022-12-23T01:26:10.889Z,11.52
2022-12-23T01:28:37.680Z,8.60
2022-12-23T01:31:10.341Z,12.93
2022-12-23T01:33:37.036Z,13.50
2022-12-23T01:36:08.355Z,14.95
2022-12-23T01:38:35.263Z,9.82
2022-12-23T01:41:04.067Z,15.65
2022-12-23T01:43:51.051Z,20.55
2022-12-23T01:46:18.960Z,12.05
2022-12-23T01:48:49.299Z,9.23
2022-12-23T01:51:22.582Z,17.55
2022-12-23T01:53:53.563Z,14.63
2022-12-23T01:56:25.069Z,18.75
2022-12-23T01:58:59.117Z,14.30
2022-12-23T02:01:45.139Z,11.93
2022-12-23T02:04:15.964Z,17.80
2022-12-23T02:07:02.943Z,11.10
2022-12-23T02:09:40.445Z,12.13
2022-12-23T02:12:32.884Z,13.57
2022-12-23T02:15:44.551Z,15.95
2022-12-23T02:18:40.728Z,7.88
2022-12-23T02:21:24.543Z,10.50
2022-12-23T02:24:03.334Z,11.02
2022-12-23T02:27:01.185Z,10.77
2022-12-23T02:29:33.894Z,10.30
2022-12-23T02:32:39.849Z,7.15
2022-12-23T02:35:15.049Z,7.15
2022-12-23T02:37:54.291Z,8.57
2022-12-23T02:40:41.018Z,10.73
2022-12-23T02:43:21.570Z,8.75
2022-12-23T02:45:56.806Z,10.93
2022-12-23T02:48:29.510Z,8.52
2022-12-23T02:50:58.715Z,13.60
2022-12-23T02:53:34.032Z,11.20
2022-12-23T02:56:02.287Z,16.10
2022-12-23T02:58:34.323Z,11.43
2022-12-23T03:01:03.417Z,10.57
2022-12-23T03:03:31.361Z,15.85
2022-12-23T03:05:58.282Z,7.68
2022-12-23T03:08:30.153Z,8.60
2022-12-23T03:11:15.372Z,22.85
2022-12-23T03:14:11.943Z,9.88
2022-12-23T03:16:42.787Z,10.70
2022-12-23T03:19:24.783Z,9.82
2022-12-23T03:22:06.518Z,7.93
2022-12-23T03:24:37.016Z,10.68
2022-12-23T03:27:18.816Z,12.00
2022-12-23T03:29:57.214Z,9.80
2022-12-23T03:32:26.206Z,13.88
2022-12-23T03:34:56.863Z,8.93
2022-12-23T03:37:26.522Z,8.27
2022-12-23T03:39:58.875Z,7.63
2022-12-23T03:42:39.162Z,8.90
2022-12-23T03:48:19.544Z,11.50
2022-12-23T03:50:49.368Z,11.27
2022-12-23T03:53:24.570Z,7.00
2022-12-23T03:55:59.475Z,8.77
2022-12-23T03:58:37.631Z,9.38
2022-12-23T04:01:19.263Z,12.15
2022-12-23T04:03:45.959Z,11.00
2022-12-23T04:06:16.754Z,16.42
2022-12-23T04:08:46.555Z,9.57
2022-12-23T04:11:13.576Z,10.23
2022-12-23T04:13:40.595Z,8.30
2022-12-23T04:16:07.760Z,8.73
2022-12-23T04:18:34.513Z,11.63
2022-12-23T04:21:01.249Z,11.50
2022-12-23T04:23:27.969Z,15.02
2022-12-23T04:25:54.650Z,10.70
2022-12-23T04:28:21.483Z,6.50
2022-12-23T04:30:48.180Z,10.25
2022-12-23T04:33:14.960Z,10.02
2022-12-23T04:35:41.660Z,11.90
2022-12-23T04:38:08.443Z,8.18
2022-12-23T04:40:35.203Z,6.57
2022-12-23T04:43:01.881Z,7.00
2022-12-23T04:45:28.592Z,10.25
2022-12-23T04:47:55.466Z,18.23
2022-12-23T04:50:22.201Z,11.93
2022-12-23T04:52:48.918Z,8.02
2022-12-23T04:55:15.727Z,9.32
2022-12-23T04:57:42.592Z,8.52
2022-12-23T05:00:09.884Z,9.05
2022-12-23T05:02:36.612Z,9.27
2022-12-23T05:05:04.221Z,7.78
2022-12-23T05:07:30.956Z,7.20
2022-12-23T05:10:01.885Z,11.20
2022-12-23T05:12:30.576Z,7.75
2022-12-23T05:14:57.337Z,7.63
2022-12-23T05:17:24.214Z,7.97
2022-12-23T05:19:50.890Z,5.65
2022-12-23T05:22:17.769Z,6.72
2022-12-23T05:24:44.425Z,8.70
2022-12-23T05:27:11.104Z,9.20
2022-12-23T05:29:37.831Z,6.13
2022-12-23T05:32:04.895Z,9.00
2022-12-23T05:34:31.633Z,5.15
2022-12-23T05:36:58.378Z,5.45
2022-12-23T05:39:25.072Z,6.75
2022-12-23T05:41:51.799Z,9.60
2022-12-23T05:44:18.487Z,7.28
2022-12-23T05:46:45.167Z,7.82
2022-12-23T05:49:11.892Z,13.48
2022-12-23T05:51:38.603Z,5.63
2022-12-23T05:54:05.345Z,13.65
2022-12-23T05:56:32.044Z,10.02
2022-12-23T05:58:58.793Z,6.95
2022-12-23T06:01:25.561Z,11.52
2022-12-23T06:03:52.340Z,9.02
2022-12-23T06:06:19.125Z,6.63
2022-12-23T06:08:45.851Z,9.10
2022-12-23T06:11:13.267Z,9.65
2022-12-23T06:13:40.092Z,8.80
2022-12-23T06:16:07.453Z,8.95
2022-12-23T06:18:34.168Z,9.10
2022-12-23T06:21:00.876Z,8.80
2022-12-23T06:23:27.571Z,10.18
2022-12-23T06:26:02.255Z,6.05
2022-12-23T06:28:29.444Z,7.38
2022-12-23T06:30:57.475Z,7.60
2022-12-23T06:33:25.078Z,5.13
2022-12-23T06:35:51.768Z,8.15
2022-12-23T06:38:18.413Z,9.13
2022-12-23T06:40:45.182Z,11.20
2022-12-23T06:43:13.570Z,7.05
2022-12-23T06:45:41.236Z,11.38
2022-12-23T06:48:08.058Z,6.68
2022-12-23T06:50:34.754Z,11.50
2022-12-23T06:53:01.431Z,10.52
2022-12-23T06:55:28.380Z,4.18
2022-12-23T06:57:55.240Z,13.30
2022-12-23T07:00:22.093Z,7.65
2022-12-23T07:02:49.195Z,8.82
2022-12-23T07:05:17.143Z,7.00
2022-12-23T07:07:44.173Z,9.02
2022-12-23T07:10:15.372Z,6.57
2022-12-23T07:12:46.091Z,5.50
2022-12-23T07:15:17.135Z,6.50
2022-12-23T07:17:44.128Z,4.95
2022-12-23T07:20:13.501Z,14.98
2022-12-23T07:22:40.188Z,7.22
2022-12-23T07:25:07.529Z,5.30
2022-12-23T07:27:34.222Z,5.95
2022-12-23T07:30:00.944Z,8.68
2022-12-23T07:32:27.665Z,6.35
2022-12-23T07:34:54.430Z,6.30
2022-12-23T07:37:21.124Z,10.32
2022-12-23T07:39:47.800Z,23.67
2022-12-23T07:45:05.177Z,8.05
2022-12-23T07:47:32.140Z,7.63
2022-12-23T07:49:58.900Z,6.78
2022-12-23T07:52:25.696Z,8.10
2022-12-23T07:55:01.476Z,7.40
2022-12-23T07:57:32.162Z,5.72
2022-12-23T08:08:02.146Z,7.53
2022-12-23T08:10:41.409Z,6.13
2022-12-23T08:13:11.565Z,6.10
2022-12-23T08:15:38.574Z,6.13
2022-12-23T08:18:05.684Z,4.20
2022-12-23T08:20:32.437Z,12.45
2022-12-23T08:25:39.638Z,8.23
2022-12-23T08:28:06.440Z,8.55
2022-12-23T08:30:33.336Z,4.85
2022-12-23T08:33:00.207Z,9.40
2022-12-23T08:35:27.394Z,6.50
2022-12-23T08:37:54.153Z,6.28
2022-12-23T08:40:20.953Z,5.07
2022-12-23T08:42:47.708Z,5.07
2022-12-23T08:45:16.130Z,7.38
2022-12-23T08:47:43.178Z,7.63
2022-12-23T08:50:12.102Z,8.02
2022-12-23T08:52:38.806Z,6.35
2022-12-23T08:55:05.802Z,5.80
2022-12-23T08:57:33.912Z,6.53
2022-12-23T09:00:00.771Z,4.85
2022-12-23T09:02:27.669Z,5.47
2022-12-23T09:04:54.529Z,7.10
2022-12-23T09:07:21.266Z,9.27
2022-12-23T09:09:48.161Z,8.65
2022-12-23T09:12:15.008Z,7.28
2022-12-23T09:14:44.787Z,9.13
2022-12-23T09:17:11.974Z,8.45
2022-12-23T09:19:39.128Z,5.03
2022-12-23T09:22:05.844Z,9.73
2022-12-23T09:24:32.761Z,13.90
2022-12-23T09:26:59.545Z,9.05
2022-12-23T09:29:26.294Z,6.45
2022-12-23T09:31:53.466Z,7.57
2022-12-23T09:34:20.570Z,5.82
2022-12-23T09:36:53.402Z,7.75
2022-12-23T09:39:22.068Z,9.00
2022-12-23T09:42:04.017Z,9.95
2022-12-23T09:44:43.586Z,9.25
2022-12-23T09:47:15.966Z,7.32
2022-12-23T09:49:50.595Z,8.80
2022-12-23T09:52:27.919Z,10.73
2022-12-23T09:54:56.063Z,5.10
2022-12-23T09:57:26.960Z,5.75
2022-12-23T09:59:59.774Z,4.47
2022-12-23T10:02:35.660Z,8.73
2022-12-23T10:05:11.962Z,13.82
2022-12-23T10:07:52.959Z,6.40
2022-12-23T10:10:53.366Z,12.90
2022-12-23T10:13:42.607Z,8.88
2022-12-23T10:19:00.684Z,13.70
2022-12-23T10:21:47.231Z,6.15
2022-12-23T10:24:29.640Z,7.03
2022-12-23T10:26:59.140Z,7.32
2022-12-23T10:29:39.741Z,7.43
2022-12-23T10:32:42.861Z,10.05
2022-12-23T10:35:54.030Z,8.80
2022-12-23T10:38:54.075Z,7.40
2022-12-23T10:41:38.498Z,9.38
2022-12-23T10:44:27.121Z,10.57
2022-12-23T10:47:20.754Z,10.30
2022-12-23T10:50:14.037Z,13.77
2022-12-23T10:52:45.544Z,12.55
2022-12-23T10:55:27.307Z,14.95
2022-12-23T10:58:27.515Z,11.18
2022-12-23T11:00:58.063Z,10.75
2022-12-23T11:03:31.890Z,10.68
2022-12-23T11:06:03.564Z,9.60
2022-12-23T11:16:34.309Z,12.38
2022-12-23T11:22:01.895Z,8.60
2022-12-23T11:24:41.304Z,15.18
2022-12-23T11:27:16.235Z,5.80
2022-12-23T11:32:33.660Z,8.23
2022-12-23T11:37:45.686Z,8.02
2022-12-23T11:40:27.529Z,10.85
2022-12-23T11:48:29.957Z,14.20
2022-12-23T11:53:44.718Z,8.95
2022-12-23T11:56:15.285Z,5.93
2022-12-23T11:58:47.721Z,15.90
2022-12-23T12:01:20.969Z,65.85
2022-12-23T12:03:54.381Z,14.32
2022-12-23T12:06:22.773Z,14.77
2022-12-23T12:08:51.738Z,23.40
2022-12-23T12:11:26.650Z,18.10
2022-12-23T12:14:03.172Z,27.08
2022-12-23T12:16:48.463Z,36.42
2022-12-23T12:19:28.885Z,29.73
2022-12-23T12:22:02.725Z,111.60
2022-12-23T12:24:36.893Z,30.75
2022-12-23T12:27:08.126Z,14.90
2022-12-23T12:29:46.377Z,18.65
2022-12-23T12:32:33.956Z,14.93
2022-12-23T12:35:07.240Z,34.83
2022-12-23T12:37:41.874Z,15.40
2022-12-23T12:40:41.146Z,12.15
2022-12-23T12:43:20.959Z,11.40
2022-12-23T12:46:06.322Z,11.07
2022-12-23T12:48:51.842Z,9.65
2022-12-23T12:51:27.724Z,11.95
2022-12-23T12:54:27.731Z,10.75
2022-12-23T12:56:57.152Z,10.63
2022-12-23T12:59:29.923Z,11.40
2022-12-23T13:02:08.880Z,14.95
2022-12-23T13:05:03.827Z,8.68
2022-12-23T13:07:30.517Z,7.00
2022-12-23T13:10:25.907Z,8.80
2022-12-23T13:13:04.757Z,10.95
2022-12-23T13:15:47.852Z,6.95
2022-12-23T13:18:24.387Z,10.85
2022-12-23T13:21:10.937Z,8.77
2022-12-23T13:23:47.252Z,12.25
2022-12-23T13:26:21.050Z,9.90
2022-12-23T13:29:05.579Z,12.40
2022-12-23T13:31:35.493Z,11.35
2022-12-23T13:34:06.820Z,11.60
2022-12-23T13:37:00.667Z,10.82
2022-12-23T13:39:39.135Z,10.13
2022-12-23T13:42:12.591Z,6.53
2022-12-23T13:44:39.887Z,9.60
2022-12-23T13:47:34.034Z,14.32
2022-12-23T13:50:19.248Z,6.45
2022-12-23T13:53:14.814Z,9.23
2022-12-23T13:55:49.068Z,10.05
2022-12-23T13:58:24.633Z,15.05
2022-12-23T14:01:19.736Z,10.18
2022-12-23T14:03:49.884Z,7.22
2022-12-23T14:06:25.740Z,11.52
2022-12-23T14:08:54.988Z,14.05
2022-12-23T14:11:27.396Z,7.25
2022-12-23T14:14:06.338Z,7.53
2022-12-23T14:16:35.943Z,8.60
2022-12-23T14:19:33.827Z,11.00
2022-12-23T14:22:00.485Z,11.65
2022-12-23T14:24:53.690Z,5.68
2022-12-23T14:27:32.594Z,9.38
2022-12-23T14:30:26.198Z,12.20
2022-12-23T14:33:23.517Z,11.52
2022-12-23T14:35:54.069Z,11.13
2022-12-23T14:38:29.080Z,10.95
2022-12-23T14:41:18.140Z,8.77
2022-12-23T14:43:44.940Z,12.63
2022-12-23T14:46:37.178Z,7.25
2022-12-23T14:49:36.845Z,11.15
2022-12-23T14:51:51.274Z,10.98
2022-12-23T14:54:36.779Z,8.07
2022-12-23T14:57:17.046Z,13.40
2022-12-23T14:59:56.955Z,12.55
2022-12-23T15:02:34.022Z,11.13
2022-12-23T15:05:01.562Z,15.57
2022-12-23T15:07:34.960Z,14.18
2022-12-23T15:10:15.443Z,13.55
2022-12-23T15:12:46.917Z,13.95
2022-12-23T15:15:20.735Z,12.73
2022-12-23T15:17:48.323Z,13.00
2022-12-23T15:20:24.154Z,14.98
2022-12-23T15:22:52.692Z,16.55
2022-12-23T15:25:31.842Z,19.15
2022-12-23T15:28:02.329Z,14.45
2022-12-23T15:30:34.125Z,14.20
2022-12-23T15:33:16.113Z,17.35
2022-12-23T15:35:52.496Z,13.65
2022-12-23T15:38:21.363Z,9.75
2022-12-23T15:41:04.148Z,11.77
2022-12-23T15:43:31.502Z,12.63
2022-12-23T15:46:26.842Z,10.40
2022-12-23T15:48:56.512Z,11.10
2022-12-23T15:54:30.538Z,15.43
2022-12-23T15:56:58.931Z,19.70
2022-12-23T15:59:29.634Z,33.88
2022-12-23T16:01:56.859Z,65.43
2022-12-23T16:04:29.415Z,61.28
2022-12-23T16:06:56.801Z,63.78
2022-12-23T16:09:31.872Z,36.20
2022-12-23T16:12:22.391Z,43.47
2022-12-23T16:14:59.398Z,56.05
2022-12-23T16:17:36.892Z,45.90
2022-12-23T16:20:16.203Z,38.20
2022-12-23T16:22:44.776Z,65.55
2022-12-23T16:25:24.782Z,48.30
2022-12-23T16:28:12.830Z,57.17
2022-12-23T16:30:42.391Z,153.15
2022-12-23T16:33:33.454Z,87.55
2022-12-23T16:36:27.667Z,52.95
2022-12-23T16:39:22.477Z,38.53
2022-12-23T16:41:50.328Z,25.63
2022-12-23T16:44:17.844Z,19.65
2022-12-23T16:46:49.704Z,14.23
2022-12-23T16:49:19.468Z,13.13
2022-12-23T16:51:46.852Z,17.38
2022-12-23T16:54:16.684Z,14.88
2022-12-23T16:56:46.774Z,14.77
2022-12-23T16:59:14.511Z,12.65
2022-12-23T17:01:46.793Z,17.58
2022-12-23T17:04:14.426Z,16.60
2022-12-23T17:06:41.996Z,13.45
2022-12-23T17:09:10.305Z,15.07
2022-12-23T17:11:53.299Z,14.38
2022-12-23T17:14:23.096Z,17.08
2022-12-23T17:16:50.506Z,17.60
2022-12-23T17:19:23.420Z,13.48
2022-12-23T17:21:58.671Z,14.77
2022-12-23T17:24:27.321Z,23.55
2022-12-23T17:26:54.766Z,15.13
2022-12-23T17:29:21.528Z,15.05
2022-12-23T17:31:48.951Z,13.80
2022-12-23T17:34:24.575Z,16.13
2022-12-23T17:36:53.084Z,37.42
2022-12-23T17:39:21.380Z,19.65
2022-12-23T17:41:50.986Z,21.67
2022-12-23T17:44:18.326Z,17.92
2022-12-23T17:46:46.373Z,15.57
2022-12-23T17:49:13.527Z,14.75
2022-12-23T17:51:41.508Z,18.33
2022-12-23T17:54:23.173Z,13.60
2022-12-23T17:56:50.948Z,15.18
2022-12-23T17:59:18.087Z,13.35
2022-12-23T18:01:45.022Z,13.40
2022-12-23T18:04:11.817Z,12.55
2022-12-23T18:06:38.519Z,17.60
2022-12-23T18:09:05.284Z,15.98
2022-12-23T18:11:39.221Z,17.63
2022-12-23T18:14:13.652Z,17.98
2022-12-23T18:16:40.537Z,15.77
2022-12-23T18:19:16.542Z,15.07
2022-12-23T18:21:43.347Z,15.07
2022-12-23T18:24:10.878Z,19.05
2022-12-23T18:26:37.840Z,12.43
2022-12-23T18:29:04.646Z,13.95
2022-12-23T18:31:31.684Z,16.67
2022-12-23T18:33:59.913Z,8.65
2022-12-23T18:36:30.571Z,9.40
2022-12-23T18:38:57.759Z,9.50
2022-12-23T18:41:26.239Z,11.77
2022-12-23T18:43:54.005Z,16.38
2022-12-23T18:46:21.173Z,13.65
2022-12-23T18:48:48.579Z,11.48
2022-12-23T18:51:17.618Z,12.07
2022-12-23T18:53:46.665Z,15.45
2022-12-23T18:56:19.383Z,14.05
2022-12-23T18:58:46.138Z,13.20
2022-12-23T19:01:14.228Z,12.88
2022-12-23T19:03:41.658Z,12.55
2022-12-23T19:06:11.894Z,10.52
2022-12-23T19:08:39.525Z,17.98
2022-12-23T19:11:14.901Z,14.95
2022-12-23T19:13:41.681Z,14.52
2022-12-23T19:16:13.766Z,14.50
2022-12-23T19:18:40.712Z,13.23
2022-12-23T19:21:09.356Z,13.02
2022-12-23T19:23:36.317Z,18.50
2022-12-23T19:26:05.972Z,15.82
2022-12-23T19:28:33.690Z,13.15
2022-12-23T19:31:00.541Z,14.25
2022-12-23T19:33:27.391Z,10.95
2022-12-23T19:35:54.127Z,13.23
2022-12-23T19:38:21.199Z,11.15
2022-12-23T19:40:56.695Z,13.63
2022-12-23T19:43:23.577Z,18.45
2022-12-23T19:46:01.690Z,16.42
2022-12-23T19:48:29.561Z,19.70
2022-12-23T19:51:00.367Z,13.35
2022-12-23T19:53:27.835Z,17.27
2022-12-23T19:56:03.367Z,15.20
2022-12-23T19:58:33.664Z,14.15
2022-12-23T20:01:08.475Z,22.55
2022-12-23T20:03:36.148Z,13.93
2022-12-23T20:06:04.241Z,23.88
2022-12-23T20:08:31.565Z,13.57
2022-12-23T20:11:10.472Z,12.82
2022-12-23T20:13:37.287Z,19.98
2022-12-23T20:16:05.229Z,20.83
2022-12-23T20:18:32.802Z,16.90
2022-12-23T20:21:01.075Z,10.65
2022-12-23T20:23:29.314Z,11.50
2022-12-23T20:25:56.108Z,16.33
2022-12-23T20:28:23.013Z,13.93
2022-12-23T20:30:59.496Z,18.88
2022-12-23T20:33:26.224Z,14.60
2022-12-23T20:35:52.938Z,25.20
2022-12-23T20:38:20.644Z,18.63
2022-12-23T20:40:47.304Z,14.48
2022-12-23T20:43:15.421Z,14.02
2022-12-23T20:45:43.275Z,18.80
2022-12-23T20:48:10.560Z,9.55
2022-12-23T20:50:41.379Z,18.17
2022-12-23T20:53:09.123Z,15.38
2022-12-23T20:55:36.353Z,11.13
2022-12-23T20:58:23.080Z,14.82
2022-12-23T21:00:50.615Z,17.08
2022-12-23T21:03:17.571Z,16.40
2022-12-23T21:05:44.531Z,12.18
2022-12-23T21:08:11.181Z,12.20
2022-12-23T21:10:39.615Z,13.15
2022-12-23T21:13:06.488Z,16.70
2022-12-23T21:15:33.552Z,15.68
2022-12-23T21:18:00.285Z,13.07
2022-12-23T21:20:27.091Z,12.85
2022-12-23T21:22:53.772Z,10.80
2022-12-23T21:25:20.430Z,13.57
2022-12-23T21:27:47.205Z,17.45
2022-12-23T21:30:14.155Z,11.68
2022-12-23T21:32:40.877Z,15.23
2022-12-23T21:35:08.026Z,13.77
2022-12-23T21:37:34.726Z,18.83
2022-12-23T21:40:01.451Z,21.00
2022-12-23T21:42:28.198Z,15.63
2022-12-23T21:44:54.911Z,16.60
2022-12-23T21:47:21.767Z,14.45
2022-12-23T21:49:48.464Z,18.45
2022-12-23T21:52:15.219Z,11.10
2022-12-23T21:54:41.988Z,16.48
2022-12-23T21:57:09.493Z,10.40
2022-12-23T21:59:36.127Z,10.80
2022-12-23T22:02:03.016Z,14.77
2022-12-23T22:04:29.889Z,15.50
2022-12-23T22:06:56.498Z,12.90
2022-12-23T22:09:23.150Z,13.57
2022-12-23T22:11:49.914Z,13.43
2022-12-23T22:14:19.518Z,13.00
2022-12-23T22:16:46.805Z,11.55
2022-12-23T22:19:13.696Z,13.95
2022-12-23T22:21:42.447Z,16.52
2022-12-23T22:24:09.881Z,21.23
2022-12-23T22:26:36.645Z,10.13
2022-12-23T22:29:06.588Z,15.73
2022-12-23T22:31:47.747Z,13.00
2022-12-23T22:34:17.583Z,17.20
2022-12-23T22:36:44.851Z,13.48
2022-12-23T22:39:19.773Z,10.57
2022-12-23T22:41:47.909Z,14.23
2022-12-23T22:44:15.235Z,12.23
2022-12-23T22:46:42.558Z,13.10
2022-12-23T22:49:13.109Z,8.52
2022-12-23T22:51:40.678Z,11.02
2022-12-23T22:54:08.025Z,15.40
2022-12-23T22:56:34.825Z,15.18
2022-12-23T22:59:01.517Z,13.25
2022-12-23T23:01:30.980Z,16.13
2022-12-23T23:04:00.353Z,11.68
2022-12-23T23:06:30.371Z,16.02
2022-12-23T23:08:58.184Z,15.38
2022-12-23T23:11:26.298Z,20.65
2022-12-23T23:13:53.931Z,13.93
2022-12-23T23:16:21.442Z,45.60
2022-12-23T23:18:48.507Z,14.18
2022-12-23T23:21:15.700Z,8.68
2022-12-23T23:23:42.937Z,10.80
2022-12-23T23:26:10.435Z,10.20
2022-12-23T23:28:39.568Z,6.45
2022-12-23T23:31:40.497Z,8.25
2022-12-23T23:33:54.485Z,10.70
2022-12-23T23:36:21.238Z,15.75
2022-12-23T23:38:47.963Z,10.32
2022-12-23T23:41:18.895Z,14.00
2022-12-23T23:43:49.529Z,9.20
2022-12-23T23:46:16.255Z,13.10
2022-12-23T23:48:43.017Z,13.43
2022-12-23T23:51:09.708Z,13.95
2022-12-23T23:53:36.471Z,13.32
2022-12-23T23:56:05.641Z,16.23
2022-12-23T23:58:33.374Z,11.90
